Time;durP1;ratioP1;P1;durP2;ratioP2;P2;SDS_P1;SDS_P2;PMS_P1;PMS_P2;Temp;Humidity;BMP_temperature;BMP_pressure;BME280_temperature;BME280_humidity;BME280_pressure;Samples;Min_cycle;Max_cycle;Signal;HPM_P1;HPM_P2
2022/01/29 00:01:42;;;;;;;7.63;5.30;;;3.10;91.70;;;3.33;64.71;99195.53;5110123;28;20238;-40
2022/01/29 00:04:11;;;;;;;9.77;5.17;;;3.10;91.60;;;3.35;65.16;99200.69;5107757;28;20061;-40
2022/01/29 00:06:39;;;;;;;12.03;6.03;;;3.10;91.80;;;3.32;65.03;99185.91;5109404;28;20051;-39
2022/01/29 00:09:08;;;;;;;9.60;6.77;;;3.10;91.50;;;3.34;65.10;99181.44;5109898;28;20047;-40
2022/01/29 00:11:36;;;;;;;7.23;4.60;;;3.00;91.30;;;3.32;64.71;99187.72;5108122;28;20051;-39
2022/01/29 00:14:06;;;;;;;8.90;5.47;;;3.10;92.50;;;3.35;65.53;99182.28;5108704;28;20051;-39
2022/01/29 00:16:34;;;;;;;10.23;5.60;;;3.10;92.10;;;3.35;65.05;99182.28;5108676;28;20078;-40
2022/01/29 00:19:01;;;;;;;10.37;5.57;;;3.10;92.00;;;3.38;65.35;99187.41;5108243;28;20066;-40
2022/01/29 00:21:29;;;;;;;11.53;5.43;;;3.10;92.40;;;3.42;65.10;99183.66;5107798;28;20066;-40
2022/01/29 00:23:57;;;;;;;9.50;6.00;;;3.20;92.30;;;3.45;64.93;99188.78;5109262;28;20054;-40
2022/01/29 00:26:27;;;;;;;13.07;6.63;;;3.20;92.00;;;3.48;65.51;99182.50;5108274;28;20047;-40
2022/01/29 00:28:57;;;;;;;9.13;5.67;;;3.20;92.10;;;3.48;65.38;99178.09;5106859;28;20054;-40
2022/01/29 00:31:25;;;;;;;9.67;5.73;;;3.20;92.10;;;3.48;64.93;99172.81;5107957;28;20051;-40
2022/01/29 00:33:52;;;;;;;11.10;5.90;;;3.20;92.10;;;3.49;65.39;99174.53;5107291;28;20055;-40
2022/01/29 00:36:20;;;;;;;9.27;5.60;;;3.30;92.20;;;3.52;64.90;99177.00;5107969;28;20247;-39
2022/01/29 00:38:48;;;;;;;11.97;5.83;;;3.20;92.10;;;3.50;64.93;99170.94;5107421;28;20537;-40
2022/01/29 00:41:15;;;;;;;8.47;5.20;;;3.20;90.90;;;3.47;64.83;99159.72;5107182;28;20037;-40
2022/01/29 00:43:43;;;;;;;9.27;5.80;;;3.10;92.00;;;3.47;65.17;99150.06;5088588;28;20357;-40
2022/01/29 00:46:11;;;;;;;8.23;4.67;;;3.10;92.20;;;3.47;64.62;99141.28;5089219;28;20043;-40
2022/01/29 00:48:39;;;;;;;8.40;5.63;;;3.10;91.90;;;3.46;64.71;99135.19;5107743;28;20360;-40
2022/01/29 00:51:12;;;;;;;8.70;5.13;;;3.10;92.40;;;3.44;65.22;99141.47;5106966;28;20055;-40
2022/01/29 00:53:39;;;;;;;7.93;5.50;;;3.10;92.30;;;3.39;64.92;99146.09;5106026;28;20341;-40
2022/01/29 00:56:09;;;;;;;9.83;5.50;;;3.10;92.00;;;3.27;64.73;99152.84;5106172;28;20061;-40
2022/01/29 00:58:37;;;;;;;9.93;6.40;;;2.90;91.80;;;3.15;64.64;99165.72;5107131;28;20051;-40
2022/01/29 01:01:05;;;;;;;10.00;5.80;;;2.80;92.50;;;3.01;65.05;99168.19;5107305;28;20040;-40
2022/01/29 01:03:33;;;;;;;9.90;5.83;;;2.60;93.10;;;2.93;65.68;99163.31;5106017;28;20245;-40
2022/01/29 01:06:00;;;;;;;10.67;7.93;;;2.50;95.00;;;2.90;65.45;99168.72;5106532;28;20346;-40
2022/01/29 01:08:28;;;;;;;10.93;6.67;;;2.50;96.10;;;2.89;65.29;99159.13;5107526;28;20054;-40
2022/01/29 01:10:56;;;;;;;8.10;5.93;;;2.50;96.20;;;2.94;65.40;99162.38;5106185;28;20051;-40
2022/01/29 01:13:24;;;;;;;10.03;5.87;;;2.60;96.60;;;2.99;65.96;99156.91;5106577;28;20376;-40
2022/01/29 01:15:52;;;;;;;12.07;6.07;;;2.70;96.30;;;3.05;65.71;99150.47;5088405;28;20234;-40
2022/01/29 01:18:20;;;;;;;13.27;6.60;;;2.70;96.30;;;3.07;66.17;99146.84;5108987;28;20676;-40
2022/01/29 01:20:48;;;;;;;13.10;6.87;;;2.80;96.20;;;3.09;65.42;99149.38;5107541;28;20207;-40
2022/01/29 01:23:16;;;;;;;13.03;6.73;;;2.80;96.10;;;3.09;65.54;99141.50;5105284;28;20559;-40
2022/01/29 01:25:44;;;;;;;11.27;6.43;;;2.80;96.40;;;3.08;65.68;99140.66;5068215;28;1131041;-38
2022/01/29 01:28:12;;;;;;;10.63;6.90;;;2.80;96.20;;;3.08;65.83;99158.19;5107927;28;20265;-40
2022/01/29 01:30:40;;;;;;;9.03;6.77;;;2.70;96.50;;;3.07;65.67;99169.66;5107930;28;20048;-40
2022/01/29 01:33:08;;;;;;;11.97;7.10;;;2.70;96.50;;;3.05;65.73;99171.53;5107601;28;20048;-40
2022/01/29 01:35:53;;;;;;;9.67;6.47;;;2.70;97.00;;;3.07;66.09;99170.50;5106073;28;20292;-40
2022/01/29 01:40:54;;;;;;;12.07;6.40;;;2.70;96.80;;;3.05;66.03;99169.75;5106273;28;20362;-40
2022/01/29 01:43:22;;;;;;;11.32;6.28;;;2.70;97.50;;;3.05;66.13;99163.63;5107267;28;20431;-40
2022/01/29 01:45:50;;;;;;;13.57;7.10;;;2.70;97.80;;;3.06;65.81;99160.91;5105786;28;20045;-40
2022/01/29 01:48:18;;;;;;;11.43;6.90;;;2.70;98.50;;;3.05;65.95;99155.75;5106002;28;20040;-40
2022/01/29 01:50:46;;;;;;;9.00;6.80;;;2.70;98.50;;;3.03;65.95;99145.28;5104694;28;20176;-40
2022/01/29 01:53:14;;;;;;;17.47;7.73;;;2.70;99.10;;;3.06;66.15;99147.75;5088681;28;20059;-40
2022/01/29 01:55:42;;;;;;;10.80;7.10;;;2.70;99.70;;;3.08;65.88;99150.31;5106694;28;20578;-40
2022/01/29 01:58:10;;;;;;;11.93;7.20;;;2.70;99.50;;;3.07;65.86;99143.34;5106494;28;20044;-40
2022/01/29 02:00:37;;;;;;;12.10;7.03;;;2.70;99.90;;;3.08;66.17;99147.69;5106794;28;20047;-40
2022/01/29 02:03:05;;;;;;;12.33;7.27;;;2.70;99.90;;;3.06;66.19;99137.22;5106288;28;20253;-40
2022/01/29 02:05:33;;;;;;;13.87;7.97;;;2.60;99.90;;;3.05;66.52;99134.69;5106757;28;20330;-40
2022/01/29 02:08:02;;;;;;;14.73;7.50;;;2.70;99.90;;;3.05;66.37;99122.38;5106807;28;20364;-40
2022/01/29 02:10:30;;;;;;;13.90;7.57;;;2.70;99.90;;;3.07;66.29;99122.31;5107127;28;20233;-40
2022/01/29 02:13:03;;;;;;;14.03;8.47;;;2.70;99.90;;;3.08;66.16;99116.09;5107085;28;20047;-40
2022/01/29 02:15:31;;;;;;;12.60;6.37;;;2.70;99.90;;;3.08;66.58;99103.81;5107066;28;20426;-40
2022/01/29 02:17:59;;;;;;;12.50;7.30;;;2.70;99.90;;;3.10;66.58;99098.44;5107554;28;20052;-40
2022/01/29 02:20:30;;;;;;;11.87;6.90;;;2.80;99.90;;;3.11;66.89;99098.38;5088891;28;20221;-40
2022/01/29 02:23:00;;;;;;;12.00;6.50;;;2.80;99.90;;;3.11;66.90;99097.53;5106665;28;20055;-39
2022/01/29 02:25:46;;;;;;;11.17;6.53;;;2.80;99.90;;;3.11;66.28;99095.75;5107175;28;20054;-40
2022/01/29 02:28:20;;;;;;;11.33;7.00;;;2.70;99.90;;;3.11;66.81;99097.53;5106454;28;20361;-40
2022/01/29 02:30:50;;;;;;;;;;;2.70;99.90;;;3.08;66.61;99074.00;5107789;28;20043;-40
2022/01/29 02:33:18;;;;;;;14.93;7.10;;;2.80;99.90;;;3.13;66.71;99078.09;5105485;28;19930;-40
2022/01/29 02:35:49;;;;;;;9.93;6.83;;;2.70;99.90;;;3.17;67.08;99076.16;5106003;28;20051;-39
2022/01/29 02:38:20;;;;;;;16.00;8.30;;;2.80;99.90;;;3.18;66.81;99062.09;5106161;28;20058;-39
2022/01/29 02:40:55;;;;;;;14.07;7.70;;;2.90;99.90;;;3.20;66.50;99057.59;5107404;28;20055;-39
2022/01/29 02:43:41;;;;;;;12.27;7.63;;;2.80;99.90;;;3.20;66.65;99051.44;5105905;28;20342;-39
2022/01/29 02:48:50;;;;;;;13.03;7.57;;;2.80;99.90;;;3.18;66.92;99051.56;5107424;28;20235;-36
2022/01/29 02:51:18;;;;;;;11.77;7.13;;;2.80;99.90;;;3.17;66.44;99044.56;5088664;28;20055;-36
2022/01/29 02:53:47;;;;;;;12.50;7.00;;;2.80;99.90;;;3.16;66.65;99035.00;5106618;28;20053;-36
2022/01/29 02:56:16;;;;;;;12.60;7.40;;;2.80;99.90;;;3.16;66.92;99024.47;5106587;28;20073;-37
2022/01/29 02:58:43;;;;;;;12.30;7.37;;;2.80;99.90;;;3.14;67.24;99014.00;5106696;28;20066;-39
2022/01/29 03:01:11;;;;;;;14.23;7.37;;;2.70;99.90;;;3.12;66.61;99009.75;5105013;28;20044;-39
2022/01/29 03:03:39;;;;;;;14.50;7.07;;;2.70;99.90;;;3.09;67.13;99018.66;5107915;28;20233;-39
2022/01/29 03:06:09;;;;;;;11.07;6.30;;;2.70;99.90;;;3.09;66.87;99012.56;5105944;28;20052;-39
2022/01/29 03:08:37;;;;;;;10.60;6.87;;;2.70;99.90;;;3.08;66.75;99005.56;5107892;28;20044;-39
2022/01/29 03:11:06;;;;;;;12.10;6.50;;;2.70;99.90;;;3.07;66.79;99002.09;5106492;28;20065;-39
2022/01/29 03:13:34;;;;;;;12.13;7.27;;;2.60;99.90;;;3.06;67.17;99002.19;5106391;28;20048;-39
2022/01/29 03:16:02;;;;;;;13.60;7.30;;;2.60;99.90;;;3.07;66.73;99001.25;5105877;28;20062;-39
2022/01/29 03:18:30;;;;;;;13.40;6.83;;;2.70;99.90;;;3.09;67.07;98999.41;5106084;28;20242;-39
2022/01/29 03:20:58;;;;;;;11.30;7.20;;;2.70;99.90;;;3.10;66.79;98998.44;5104560;28;20058;-39
2022/01/29 03:23:26;;;;;;;12.80;6.67;;;2.70;99.90;;;3.10;67.04;98994.06;5106531;28;20451;-39
2022/01/29 03:25:53;;;;;;;15.13;7.30;;;2.70;99.90;;;3.10;66.95;98985.28;5105565;28;20055;-39
2022/01/29 03:28:21;;;;;;;10.23;7.00;;;2.70;99.90;;;3.10;66.74;98991.44;5091767;28;20044;-40
2022/01/29 03:30:49;;;;;;;12.90;7.63;;;2.70;99.90;;;3.11;67.13;98992.28;5108854;28;20050;-39
2022/01/29 03:33:17;;;;;;;14.00;8.30;;;2.70;99.90;;;3.14;67.02;98999.97;5109929;28;20285;-39
2022/01/29 03:35:45;;;;;;;13.93;8.37;;;2.80;99.90;;;3.17;66.60;99001.63;5109586;28;20052;-39
2022/01/29 03:38:13;;;;;;;12.43;7.23;;;2.80;99.90;;;3.12;66.96;99001.84;5109077;28;20055;-39
2022/01/29 03:40:43;;;;;;;14.57;7.77;;;2.70;99.90;;;3.13;67.00;99006.19;5110269;28;20055;-39
2022/01/29 03:43:14;;;;;;;11.13;7.80;;;2.80;99.90;;;3.11;66.98;99001.00;5108809;28;20051;-39
2022/01/29 03:45:41;;;;;;;14.87;8.43;;;2.80;99.90;;;3.10;66.99;98996.69;5108071;28;20043;-39
2022/01/29 03:48:09;;;;;;;11.27;7.00;;;2.80;99.90;;;3.08;67.03;98995.06;5109627;28;20044;-39
2022/01/29 03:50:37;;;;;;;12.00;6.93;;;2.70;99.90;;;3.04;66.80;98994.34;5110333;28;20342;-39
2022/01/29 03:53:05;;;;;;;10.53;6.70;;;2.70;99.90;;;3.00;66.65;99000.72;5109548;28;20051;-39
2022/01/29 03:55:33;;;;;;;14.63;7.63;;;2.60;99.90;;;2.94;66.84;98994.00;5109269;28;20065;-39
2022/01/29 03:58:01;;;;;;;11.80;6.83;;;2.60;99.90;;;2.93;67.00;98992.31;5109364;28;20250;-39
2022/01/29 04:00:28;;;;;;;13.00;7.43;;;2.60;99.90;;;2.84;66.87;98984.03;5108277;28;20058;-39
2022/01/29 04:02:56;;;;;;;10.83;7.00;;;2.50;99.90;;;2.77;67.32;98975.59;5107935;28;20043;-39
2022/01/29 04:05:26;;;;;;;15.27;6.97;;;2.40;99.90;;;2.68;67.60;98981.38;5109166;28;20062;-39
2022/01/29 04:07:54;;;;;;;11.77;7.17;;;2.30;99.90;;;2.73;67.38;98990.72;5109234;28;20353;-39
2022/01/29 04:10:23;;;;;;;11.60;7.63;;;2.40;99.90;;;2.80;67.21;98995.66;5108592;28;20054;-39
2022/01/29 04:12:53;;;;;;;12.63;7.43;;;2.40;99.90;;;2.82;67.51;98980.66;5110358;28;20052;-39
2022/01/29 04:15:21;;;;;;;11.47;7.87;;;2.50;99.90;;;2.82;67.49;98984.13;5109131;28;20055;-39
2022/01/29 04:17:49;;;;;;;16.77;8.87;;;2.50;99.90;;;2.79;67.64;98978.16;5108470;28;20062;-39
2022/01/29 04:20:16;;;;;;;14.47;8.60;;;2.50;99.90;;;2.75;67.72;98978.34;5109714;28;20057;-39
2022/01/29 04:22:44;;;;;;;17.10;8.50;;;2.40;99.90;;;2.67;67.70;98982.28;5108366;28;20061;-39
2022/01/29 04:25:12;;;;;;;16.80;8.10;;;2.30;99.90;;;2.68;67.42;98986.63;5108371;28;20258;-39
2022/01/29 04:27:43;;;;;;;18.30;11.13;;;2.30;99.90;;;2.68;67.92;98990.09;5110154;28;20052;-39
2022/01/29 04:30:27;;;;;;;13.80;10.53;;;2.30;99.90;;;2.69;68.17;98976.00;5109421;28;20047;-39
2022/01/29 04:33:43;;;;;;;19.42;10.32;;;2.30;99.90;;;2.70;67.91;98975.09;5108814;28;20118;-39
2022/01/29 04:35:46;;;;;;;19.73;11.40;;;2.40;99.90;;;2.68;68.23;98969.06;5097652;28;20067;-40
2022/01/29 04:38:14;;;;;;;19.90;11.90;;;2.30;99.90;;;2.67;68.14;98950.72;5107087;28;20250;-40
2022/01/29 04:40:42;;;;;;;20.17;11.90;;;2.40;99.90;;;2.71;68.49;98944.38;5108186;28;20263;-40
2022/01/29 04:43:10;;;;;;;23.73;12.57;;;2.40;99.90;;;2.75;68.38;98941.53;5108702;28;20046;-40
2022/01/29 04:45:40;;;;;;;26.80;13.33;;;2.50;99.90;;;2.80;68.26;98946.53;5109349;28;20043;-40
2022/01/29 04:48:08;;;;;;;20.30;11.63;;;2.60;99.90;;;2.69;68.52;98956.75;5109785;28;20055;-40
2022/01/29 04:50:36;;;;;;;18.60;11.63;;;2.50;99.90;;;2.65;68.46;98952.59;5106998;28;20271;-40
2022/01/29 04:53:04;;;;;;;17.93;11.97;;;2.40;99.90;;;2.59;68.43;98955.53;5108784;28;20044;-40
2022/01/29 04:55:33;;;;;;;23.30;13.63;;;2.30;99.90;;;2.59;68.74;98955.53;5107786;28;20051;-41
2022/01/29 04:58:01;;;;;;;21.10;11.47;;;2.30;99.90;;;2.63;68.86;98963.19;5107137;28;20338;-40
2022/01/29 05:00:29;;;;;;;19.53;10.63;;;2.40;99.90;;;2.52;68.68;98971.63;5107584;28;20353;-40
2022/01/29 05:03:13;;;;;;;20.70;11.13;;;2.30;99.90;;;2.40;69.06;98985.38;5109067;28;20047;-40
2022/01/29 05:05:43;;;;;;;19.42;12.07;;;2.20;99.90;;;2.41;69.20;99009.91;5108385;28;20046;-39
2022/01/29 05:08:14;;;;;;;18.20;12.07;;;2.10;99.90;;;2.36;69.41;99018.88;5108235;28;20039;-39
2022/01/29 05:10:42;;;;;;;17.93;12.13;;;2.10;99.90;;;2.24;69.70;99011.56;5106351;28;20241;-39
2022/01/29 05:13:13;;;;;;;18.07;11.73;;;2.00;99.90;;;2.33;69.69;99026.06;5106606;28;20357;-39
2022/01/29 05:16:35;;;;;;;19.77;11.70;;;2.00;99.90;;;2.32;69.69;99016.47;5106982;28;20073;-38
2022/01/29 05:26:59;;;;;;;17.87;10.47;;;2.10;99.90;;;2.34;69.72;99010.19;5108493;28;20048;-39
2022/01/29 05:29:30;;;;;;;19.73;11.67;;;2.20;99.90;;;2.28;69.55;98992.09;5107708;28;20058;-39
2022/01/29 05:32:07;;;;;;;18.23;10.53;;;2.10;99.90;;;2.25;69.51;98996.66;5107749;28;20082;-39
2022/01/29 05:34:36;;;;;;;20.07;10.30;;;2.10;99.90;;;2.03;70.68;99013.47;5107034;28;20058;-39
2022/01/29 05:37:04;;;;;;;19.77;11.43;;;1.90;99.90;;;1.97;70.43;99003.25;5107030;28;20055;-38
2022/01/29 05:39:32;;;;;;;16.60;11.07;;;1.90;99.90;;;1.96;70.67;98999.78;5107064;28;20053;-39
2022/01/29 05:42:00;;;;;;;17.73;11.00;;;1.80;99.90;;;1.98;70.99;99002.34;5107101;28;20039;-38
2022/01/29 05:44:27;;;;;;;21.80;12.83;;;1.80;99.90;;;2.02;70.43;98990.78;5106831;28;20447;-39
2022/01/29 05:46:55;;;;;;;21.73;12.80;;;1.90;99.90;;;2.12;70.54;98991.16;5107622;28;20258;-38
2022/01/29 05:49:23;;;;;;;21.53;12.67;;;2.00;99.90;;;2.16;70.45;98997.97;5106015;28;20047;-38
2022/01/29 05:51:52;;;;;;;21.63;11.20;;;2.00;99.90;;;2.20;70.61;98991.63;5107444;28;20233;-39
2022/01/29 05:54:19;;;;;;;20.77;12.13;;;2.10;99.90;;;2.22;70.35;98981.91;5107230;28;20234;-39
2022/01/29 05:56:47;;;;;;;23.90;12.40;;;2.10;99.90;;;2.30;70.29;98981.53;5107081;28;20056;-39
2022/01/29 05:59:15;;;;;;;20.33;12.00;;;2.20;99.90;;;2.31;70.18;98973.56;5107973;28;20039;-39
2022/01/29 06:01:43;;;;;;;18.90;11.67;;;2.20;99.90;;;2.29;70.44;98990.34;5106823;28;20052;-39
2022/01/29 06:04:11;;;;;;;21.97;11.90;;;2.20;99.90;;;2.26;70.42;98991.31;5107932;28;20325;-39
2022/01/29 06:06:39;;;;;;;19.53;11.47;;;2.20;99.90;;;2.26;70.31;98978.19;5107939;28;20043;-39
2022/01/29 06:09:07;;;;;;;22.97;12.57;;;2.20;99.90;;;2.17;70.38;98976.88;5106005;28;20055;-39
2022/01/29 06:11:35;;;;;;;19.37;11.80;;;2.10;99.90;;;2.23;70.23;98969.59;5106174;28;20063;-39
2022/01/29 06:14:03;;;;;;;20.67;11.17;;;2.10;99.90;;;2.16;70.53;98969.91;5107182;28;20052;-39
2022/01/29 06:16:30;;;;;;;18.90;10.83;;;2.10;99.90;;;2.11;70.61;98968.44;5107954;28;20061;-39
2022/01/29 06:18:58;;;;;;;19.27;11.80;;;2.00;99.90;;;2.18;70.26;98964.59;5106979;28;20047;-39
2022/01/29 06:21:26;;;;;;;20.97;12.17;;;2.00;99.90;;;2.17;70.38;98976.00;5106276;28;20054;-39
2022/01/29 06:23:54;;;;;;;22.53;12.97;;;2.00;99.90;;;2.19;70.43;98968.94;5107171;28;20051;-40
2022/01/29 06:26:22;;;;;;;18.17;10.60;;;2.00;99.90;;;2.20;70.44;98973.25;5107502;28;20039;-40
2022/01/29 06:28:49;;;;;;;23.57;12.97;;;2.00;99.90;;;2.29;70.43;98966.69;5106216;28;20039;-40
2022/01/29 06:31:19;;;;;;;20.10;12.40;;;2.10;99.90;;;2.31;70.28;98964.84;5107556;28;20364;-40
2022/01/29 06:33:47;;;;;;;19.43;11.10;;;2.10;99.90;;;2.41;70.26;98957.34;5107176;28;20052;-40
2022/01/29 06:36:15;;;;;;;19.37;11.50;;;2.20;99.90;;;2.49;70.02;98957.78;5105426;28;20064;-40
2022/01/29 06:38:42;;;;;;;20.90;11.53;;;2.30;99.90;;;2.60;69.97;98954.59;5105500;28;20113;-40
2022/01/29 06:41:10;;;;;;;17.70;11.10;;;2.50;99.90;;;2.65;69.60;98955.22;5106281;28;20059;-40
2022/01/29 06:43:38;;;;;;;29.70;17.50;;;2.50;99.90;;;2.68;69.67;98970.84;5106855;28;20245;-40
2022/01/29 06:46:06;;;;;;;21.97;11.47;;;2.60;99.90;;;2.68;69.70;98962.97;5105573;28;20055;-40
2022/01/29 06:48:34;;;;;;;22.33;13.23;;;2.60;99.90;;;2.68;69.45;98963.81;5106440;28;20043;-39
2022/01/29 06:51:02;;;;;;;20.37;11.77;;;2.60;99.90;;;2.72;69.40;98969.75;5107393;28;20237;-40
2022/01/29 06:53:29;;;;;;;15.93;9.30;;;2.60;99.90;;;2.72;69.14;98965.34;5107535;28;20050;-40
2022/01/29 06:55:57;;;;;;;14.97;8.80;;;2.60;99.90;;;2.77;69.05;98975.59;5107011;28;20097;-40
2022/01/29 06:58:25;;;;;;;16.60;9.23;;;2.60;99.90;;;2.80;69.00;98964.09;5107400;28;20062;-40
2022/01/29 07:01:16;;;;;;;13.37;6.63;;;2.70;99.90;;;2.79;69.05;98952.72;5106178;28;20051;-40
2022/01/29 07:03:44;;;;;;;12.03;7.40;;;2.70;99.90;;;2.81;68.02;98952.63;5108968;28;20044;-40
2022/01/29 07:06:12;;;;;;;11.13;6.70;;;2.80;99.90;;;2.82;68.21;98963.06;5109117;28;20157;-40
2022/01/29 07:08:39;;;;;;;9.90;5.63;;;2.80;99.90;;;2.84;68.31;98948.06;5109057;28;20054;-39
2022/01/29 07:11:07;;;;;;;11.43;6.03;;;2.90;99.90;;;2.86;67.24;98959.34;5110873;28;20061;-39
2022/01/29 07:13:36;;;;;;;8.83;5.40;;;2.90;99.90;;;2.90;67.64;98946.91;5110294;28;20050;-39
2022/01/29 07:16:04;;;;;;;7.23;4.67;;;3.00;99.90;;;2.97;68.10;98945.66;5110792;28;20215;-39
2022/01/29 07:18:32;;;;;;;7.63;5.30;;;3.00;99.90;;;2.98;67.52;98942.06;5111501;28;20059;-37
2022/01/29 07:21:02;;;;;;;9.97;5.57;;;3.00;99.90;;;3.00;66.92;98937.56;5110829;28;20082;-39
2022/01/29 07:23:34;;;;;;;9.17;5.13;;;3.10;99.90;;;3.02;67.06;98937.50;5108219;28;20053;-40
2022/01/29 07:26:02;;;;;;;7.87;4.40;;;3.10;99.90;;;3.07;66.93;98917.06;5110044;28;20056;-39
2022/01/29 07:28:32;;;;;;;9.10;5.27;;;3.20;99.90;;;3.16;67.38;98924.47;5110980;28;20062;-40
2022/01/29 07:30:59;;;;;;;7.07;4.47;;;3.20;99.90;;;3.20;66.80;98922.47;5108951;28;20051;-40
2022/01/29 07:33:28;;;;;;;7.33;4.60;;;3.20;99.90;;;3.23;67.32;98924.97;5092319;28;20040;-39
2022/01/29 07:35:57;;;;;;;9.50;5.77;;;3.30;99.90;;;3.26;66.31;98925.66;5109699;28;20058;-40
2022/01/29 07:38:25;;;;;;;7.33;4.70;;;3.20;99.90;;;3.32;67.00;98919.19;5108524;28;20407;-40
2022/01/29 07:40:53;;;;;;;9.57;5.30;;;3.30;99.90;;;3.34;66.83;98927.88;5090459;28;20383;-39
2022/01/29 07:43:21;;;;;;;10.27;5.13;;;3.30;99.90;;;3.37;67.01;98932.09;5109923;28;20330;-39
2022/01/29 07:45:49;;;;;;;6.83;4.27;;;3.30;99.90;;;3.36;66.03;98933.88;5110002;28;20354;-40
2022/01/29 07:48:17;;;;;;;7.87;4.70;;;3.40;99.90;;;3.25;65.95;98931.84;5109697;28;20051;-40
2022/01/29 07:50:45;;;;;;;9.07;5.23;;;3.20;99.90;;;3.26;66.23;98925.66;5108046;28;20051;-40
2022/01/29 07:53:13;;;;;;;8.37;4.60;;;3.20;99.90;;;3.29;66.47;98941.25;5107494;28;20062;-40
2022/01/29 07:55:41;;;;;;;9.93;4.70;;;3.20;99.90;;;3.37;66.30;98938.22;5109495;28;20050;-40
2022/01/29 07:58:10;;;;;;;7.83;5.00;;;3.30;99.90;;;3.40;66.72;98938.06;5108809;28;20050;-40
2022/01/29 08:00:37;;;;;;;8.10;4.73;;;3.30;99.90;;;3.42;66.04;98930.06;5107727;28;20040;-39
2022/01/29 08:03:05;;;;;;;8.53;5.53;;;3.30;99.90;;;3.44;66.92;98931.69;5108065;28;20047;-40
2022/01/29 08:05:35;;;;;;;8.43;4.97;;;3.40;99.90;;;3.48;66.53;98921.84;5107368;28;20051;-40
2022/01/29 08:08:03;;;;;;;9.77;6.57;;;3.40;99.90;;;3.53;66.34;98922.44;5108518;28;20063;-40
2022/01/29 08:10:31;;;;;;;13.70;9.60;;;3.50;99.90;;;3.59;66.79;98929.13;5109217;28;20058;-40
2022/01/29 08:12:59;;;;;;;9.80;7.27;;;3.50;99.90;;;3.60;66.56;98929.03;5108301;28;20113;-39
2022/01/29 08:15:26;;;;;;;18.17;10.87;;;3.50;99.90;;;3.65;66.58;98920.91;5109123;28;20053;-39
2022/01/29 08:17:54;;;;;;;9.27;5.37;;;3.60;99.90;;;3.65;65.71;98921.72;5108933;28;20330;-39
2022/01/29 08:20:22;;;;;;;10.23;6.30;;;3.60;99.90;;;3.66;66.41;98907.63;5108336;28;20061;-39
2022/01/29 08:22:50;;;;;;;8.00;5.47;;;3.70;99.90;;;3.67;66.01;98906.69;5108477;28;20324;-39
2022/01/29 08:25:18;;;;;;;12.20;5.30;;;3.70;99.90;;;3.69;66.07;98904.81;5108331;28;20060;-40
2022/01/29 08:27:46;;;;;;;6.53;4.13;;;3.70;99.90;;;3.73;66.19;98903.72;5107883;28;20384;-40
2022/01/29 08:30:14;;;;;;;8.57;4.57;;;3.70;99.90;;;3.73;65.72;98906.34;5108846;28;20044;-40
2022/01/29 08:32:43;;;;;;;7.03;4.40;;;3.70;99.90;;;3.77;66.13;98908.81;5108259;28;20063;-40
2022/01/29 08:35:14;;;;;;;7.73;4.57;;;3.70;99.90;;;3.76;65.77;98905.31;5108508;28;20264;-40
2022/01/29 08:37:44;;;;;;;8.20;4.23;;;3.70;99.90;;;3.83;66.66;98908.47;5109311;28;20055;-40
2022/01/29 08:40:13;;;;;;;5.97;3.53;;;3.70;99.90;;;3.83;65.80;98914.56;5109778;28;20063;-40
2022/01/29 08:42:41;;;;;;;5.87;4.53;;;3.80;99.80;;;3.89;65.49;98900.19;5108659;28;20284;-40
2022/01/29 08:45:10;;;;;;;5.53;3.70;;;3.80;99.90;;;3.90;65.94;98900.13;5108534;28;20249;-40
2022/01/29 08:47:42;;;;;;;6.87;3.50;;;3.90;99.90;;;3.91;65.68;98898.31;5108768;28;20047;-40
2022/01/29 08:50:12;;;;;;;6.63;4.00;;;3.90;99.90;;;3.96;65.80;98892.81;5107523;28;20053;-40
2022/01/29 08:52:40;;;;;;;5.90;3.90;;;3.90;99.90;;;3.99;65.93;98885.53;5109101;28;20506;-40
2022/01/29 08:55:09;;;;;;;5.90;3.90;;;4.00;99.80;;;4.05;66.12;98892.25;5107376;28;20364;-40
2022/01/29 08:57:38;;;;;;;9.30;3.50;;;4.00;99.80;;;4.07;66.19;98893.00;5108044;28;20055;-40
2022/01/29 09:00:11;;;;;;;6.17;3.30;;;4.10;99.20;;;4.09;65.99;98888.47;5112391;27;20361;-41
2022/01/29 09:02:39;;;;;;;5.73;3.70;;;4.10;99.10;;;4.09;65.48;98888.47;5117217;27;20116;-40
2022/01/29 09:05:09;;;;;;;5.97;3.63;;;4.10;98.40;;;4.11;64.73;98883.97;5114938;27;20281;-40
2022/01/29 09:07:38;;;;;;;4.20;3.03;;;4.20;98.10;;;4.19;65.52;98889.66;5113942;27;20055;-40
2022/01/29 09:10:07;;;;;;;4.60;3.13;;;4.20;97.70;;;4.22;65.96;98884.19;5115147;27;20040;-40
2022/01/29 09:12:35;;;;;;;4.93;2.93;;;4.20;97.10;;;4.27;64.94;98876.88;5117647;27;20039;-40
2022/01/29 09:15:05;;;;;;;4.43;2.83;;;4.30;96.80;;;4.29;64.64;98872.34;5115221;27;20364;-40
2022/01/29 09:17:35;;;;;;;5.50;2.93;;;4.30;95.60;;;4.35;65.38;98871.13;5117219;27;20057;-37
2022/01/29 09:20:03;;;;;;;4.03;2.40;;;4.40;95.20;;;4.37;64.32;98878.97;5117839;27;20073;-37
2022/01/29 09:22:31;;;;;;;5.27;3.10;;;4.40;94.70;;;4.42;64.93;98882.16;5128465;27;20062;-37
2022/01/29 09:24:59;;;;;;;6.80;3.27;;;4.40;93.90;;;4.37;64.22;98874.53;5127960;27;20041;-37
2022/01/29 09:27:26;;;;;;;5.77;3.03;;;4.40;92.60;;;4.41;64.41;98876.03;5127740;27;20049;-38
2022/01/29 09:29:54;;;;;;;6.53;2.90;;;4.40;92.60;;;4.48;64.54;98872.09;5127732;27;20043;-37
2022/01/29 09:32:22;;;;;;;5.30;2.47;;;4.50;92.90;;;4.52;64.54;98872.75;5113061;27;20048;-37
2022/01/29 09:34:50;;;;;;;4.33;2.90;;;4.60;92.20;;;4.58;65.12;98875.03;5091030;28;20047;-37
2022/01/29 09:37:18;;;;;;;5.57;2.20;;;4.60;91.60;;;4.59;64.16;98865.31;5118753;27;20360;-37
2022/01/29 09:39:47;;;;;;;4.40;2.50;;;4.60;91.70;;;4.63;63.62;98870.28;5121700;27;20245;-38
2022/01/29 09:42:15;;;;;;;5.13;2.67;;;4.70;91.20;;;4.69;64.67;98861.16;5106891;28;20055;-37
2022/01/29 09:44:45;;;;;;;4.23;2.17;;;4.70;91.20;;;4.74;64.71;98865.22;5106188;28;20062;-37
2022/01/29 09:47:17;;;;;;;4.20;2.67;;;4.80;90.30;;;4.82;64.67;98863.91;5107645;28;20043;-37
2022/01/29 09:49:46;;;;;;;5.07;2.90;;;4.90;89.70;;;4.83;63.87;98871.72;5105652;28;20047;-37
2022/01/29 09:52:13;;;;;;;4.30;2.43;;;4.90;90.00;;;4.89;64.73;98863.44;5088333;28;20051;-37
2022/01/29 09:54:46;;;;;;;5.93;2.80;;;4.90;91.20;;;4.99;65.19;98865.50;5106065;28;20047;-37
2022/01/29 09:57:13;;;;;;;4.77;2.60;;;5.10;91.60;;;5.02;64.88;98865.28;5088918;28;20067;-37
2022/01/29 09:59:41;;;;;;;4.63;2.67;;;5.00;90.90;;;5.04;65.23;98868.69;5106019;28;20062;-37
2022/01/29 10:02:18;;;;;;;4.43;2.30;;;5.10;91.10;;;5.11;64.41;98862.06;5106701;28;20057;-37
2022/01/29 10:04:53;;;;;;;4.60;2.67;;;5.20;91.30;;;5.20;64.86;98866.78;5106865;28;20054;-37
2022/01/29 10:07:28;;;;;;;4.03;2.47;;;5.30;91.50;;;5.30;64.56;98862.59;5106130;28;20053;-38
2022/01/29 10:09:58;;;;;;;3.77;2.27;;;5.40;91.60;;;5.39;64.74;98868.22;5088463;28;20081;-37
2022/01/29 10:12:32;;;;;;;6.30;2.70;;;5.50;91.10;;;5.42;64.73;98858.31;5106003;28;20350;-37
2022/01/29 10:15:07;;;;;;;4.53;2.90;;;5.50;91.20;;;5.45;65.25;98865.22;5106862;28;20062;-37
2022/01/29 10:17:48;;;;;;;;;;;5.60;91.10;;;5.46;65.20;98851.03;5106159;28;20059;-37
2022/01/29 10:20:27;;;;;;;3.37;2.30;;;5.50;90.70;;;5.42;65.17;98860.97;5107283;28;20292;-38
2022/01/29 10:23:03;;;;;;;3.27;2.10;;;5.50;93.60;;;5.43;65.31;98846.81;5106938;28;20051;-37
2022/01/29 10:25:41;;;;;;;3.47;2.83;;;5.50;94.80;;;5.47;65.40;98840.38;5105633;28;20384;-38
2022/01/29 10:28:10;;;;;;;3.30;2.20;;;5.50;95.60;;;5.50;66.43;98840.16;5104684;28;20051;-37
2022/01/29 10:30:57;;;;;;;3.33;1.90;;;5.60;96.10;;;5.53;66.39;98834.69;5105648;28;20048;-38
2022/01/29 10:33:38;;;;;;;5.17;1.70;;;5.70;97.00;;;5.44;67.26;98826.53;5088931;28;20048;-37
2022/01/29 10:36:14;;;;;;;4.27;1.87;;;5.70;99.60;;;5.61;66.67;98823.63;5106930;28;20050;-37
2022/01/29 10:38:43;;;;;;;2.47;1.27;;;5.80;99.10;;;5.58;67.96;98825.63;5109848;28;20067;-37
2022/01/29 10:41:25;;;;;;;2.47;1.43;;;5.90;99.70;;;5.60;67.93;98827.19;5110567;28;20056;-37
2022/01/29 10:44:14;;;;;;;2.53;1.50;;;5.90;99.90;;;5.48;68.54;98815.66;5109880;28;20044;-40
2022/01/29 10:46:56;;;;;;;3.40;1.90;;;5.90;99.90;;;5.43;68.93;98823.06;5110572;28;20296;-38
2022/01/29 10:49:34;;;;;;;2.80;2.00;;;5.80;99.90;;;5.58;68.50;98809.78;5108143;28;20055;-38
2022/01/29 10:52:05;;;;;;;1.90;1.50;;;5.90;99.90;;;5.51;69.12;98810.19;5107586;28;20061;-38